Time;durP1;ratioP1;P1;durP2;ratioP2;P2;SDS_P1;SDS_P2;PMS_P1;PMS_P2;Temp;Humidity;BMP_temperature;BMP_pressure;BME280_temperature;BME280_humidity;BME280_pressure;Samples;Min_cycle;Max_cycle;Signal;HPM_P1;HPM_P2
2021/01/22 00:00:06;;;;;;;1.63;1.20;;;5.80;99.90;;;;;;4911169;29;20035;-78
2021/01/22 00:02:32;;;;;;;2.45;1.50;;;5.80;99.90;;;;;;4894126;29;20131;-81
2021/01/22 00:04:58;;;;;;;3.63;0.93;;;5.90;99.90;;;;;;4910995;29;20037;-79
2021/01/22 00:07:23;;;;;;;2.58;1.25;;;6.00;99.90;;;;;;4911512;29;20029;-76
2021/01/22 00:09:49;;;;;;;2.10;1.10;;;6.00;99.90;;;;;;4909946;29;20028;-75
2021/01/22 00:12:14;;;;;;;3.40;1.70;;;6.10;99.90;;;;;;4893898;29;20052;-75
2021/01/22 00:14:40;;;;;;;3.22;1.27;;;6.20;99.90;;;;;;4909423;29;20051;-75
2021/01/22 00:17:06;;;;;;;3.40;1.65;;;6.20;99.90;;;;;;4911292;29;20056;-77
2021/01/22 00:19:31;;;;;;;5.68;1.58;;;6.30;99.90;;;;;;4893870;29;20028;-78
2021/01/22 00:21:57;;;;;;;2.17;1.15;;;6.40;99.90;;;;;;4909199;29;20040;-78
2021/01/22 00:24:22;;;;;;;1.13;0.93;;;6.30;99.90;;;;;;4894303;29;20041;-83
2021/01/22 00:26:48;;;;;;;1.17;0.88;;;6.40;99.90;;;;;;4892933;29;20781;-77
2021/01/22 00:29:14;;;;;;;3.88;1.27;;;6.40;99.90;;;;;;4894243;29;20095;-75
2021/01/22 00:31:40;;;;;;;1.85;0.88;;;6.40;99.90;;;;;;4893745;29;20049;-76
2021/01/22 00:34:05;;;;;;;2.80;1.35;;;6.50;99.90;;;;;;4910687;29;20036;-76
2021/01/22 00:36:31;;;;;;;2.75;1.10;;;6.50;99.90;;;;;;4910477;29;20065;-76
2021/01/22 00:38:56;;;;;;;2.78;1.35;;;6.50;99.90;;;;;;4893957;29;20060;-76
2021/01/22 00:41:22;;;;;;;3.53;1.48;;;6.60;99.90;;;;;;4909252;29;20024;-78
2021/01/22 00:43:47;;;;;;;1.58;1.17;;;6.70;99.90;;;;;;4910911;29;20041;-78
2021/01/22 00:46:13;;;;;;;1.92;0.90;;;6.80;99.90;;;;;;4910445;29;20029;-76
2021/01/22 00:48:39;;;;;;;1.25;0.82;;;6.80;99.90;;;;;;4910176;29;20025;-78
2021/01/22 00:51:05;;;;;;;1.60;0.80;;;6.70;99.90;;;;;;4910471;29;20448;-80
2021/01/22 00:53:30;;;;;;;10.10;1.73;;;6.80;99.90;;;;;;4893311;29;20031;-79
2021/01/22 00:55:56;;;;;;;2.42;1.13;;;6.80;99.90;;;;;;4910237;29;20131;-78
2021/01/22 00:58:22;;;;;;;7.03;1.42;;;6.90;99.90;;;;;;4909185;29;20021;-77
2021/01/22 01:00:48;;;;;;;1.38;0.70;;;6.90;99.90;;;;;;4893240;29;20071;-73
2021/01/22 01:03:13;;;;;;;0.93;0.73;;;7.00;99.90;;;;;;4909966;29;20143;-73
2021/01/22 01:05:39;;;;;;;1.58;0.95;;;7.00;99.90;;;;;;4908673;29;20053;-74
2021/01/22 01:08:04;;;;;;;1.38;1.00;;;7.10;99.90;;;;;;4908730;29;20032;-75
2021/01/22 01:10:30;;;;;;;1.25;0.90;;;7.10;99.90;;;;;;4910137;29;20020;-74
2021/01/22 01:12:56;;;;;;;2.58;1.10;;;7.10;99.90;;;;;;4893391;29;20029;-77
2021/01/22 01:15:22;;;;;;;1.60;0.93;;;7.20;99.90;;;;;;4908640;29;20044;-77
2021/01/22 01:17:47;;;;;;;3.30;0.95;;;7.20;99.90;;;;;;4909940;29;20033;-73
2021/01/22 01:20:13;;;;;;;1.58;0.90;;;7.30;99.90;;;;;;4893096;29;20033;-73
2021/01/22 01:22:39;;;;;;;2.35;0.57;;;7.30;99.90;;;;;;4909802;29;20088;-76
2021/01/22 01:25:05;;;;;;;0.57;0.40;;;7.40;99.90;;;;;;4908427;29;20040;-74
2021/01/22 01:27:31;;;;;;;1.30;0.77;;;7.40;99.90;;;;;;4909711;29;20550;-76
2021/01/22 01:29:56;;;;;;;1.67;1.00;;;7.50;99.90;;;;;;4908325;29;20036;-75
2021/01/22 01:32:22;;;;;;;1.80;1.10;;;7.50;99.90;;;;;;4909879;29;20028;-72
2021/01/22 01:34:48;;;;;;;2.53;0.95;;;7.60;99.90;;;;;;4909772;29;20096;-74
2021/01/22 01:37:14;;;;;;;1.40;0.90;;;7.60;99.90;;;;;;4909225;29;20452;-76
2021/01/22 01:39:40;;;;;;;1.00;0.68;;;7.60;99.90;;;;;;4909495;29;20576;-74
2021/01/22 01:42:05;;;;;;;3.90;1.05;;;7.70;99.90;;;;;;4908424;29;20025;-73
2021/01/22 01:44:31;;;;;;;1.38;0.98;;;7.70;99.90;;;;;;4892494;29;20036;-74
2021/01/22 01:46:57;;;;;;;0.88;0.70;;;7.80;99.90;;;;;;4908412;29;20080;-72
2021/01/22 01:49:23;;;;;;;1.05;0.80;;;7.80;99.90;;;;;;4892782;29;20043;-76
2021/01/22 01:51:49;;;;;;;1.08;0.55;;;7.90;99.90;;;;;;4909332;29;20039;-73
2021/01/22 01:54:17;;;;;;;0.90;0.70;;;7.90;99.90;;;;;;4892565;29;20032;-74
2021/01/22 01:56:43;;;;;;;2.28;0.82;;;7.90;99.90;;;;;;4909445;29;20552;-74
2021/01/22 01:59:09;;;;;;;1.45;0.93;;;8.00;99.90;;;;;;4907904;29;20032;-73
2021/01/22 02:01:37;;;;;;;5.35;0.77;;;8.00;99.90;;;;;;4908738;29;20194;-74
2021/01/22 02:04:03;;;;;;;1.23;1.02;;;8.00;99.90;;;;;;4909213;29;20032;-75
2021/01/22 02:06:29;;;;;;;1.50;0.73;;;8.00;99.90;;;;;;4891991;29;20499;-73
2021/01/22 02:08:55;;;;;;;1.30;0.70;;;8.00;99.90;;;;;;4909193;29;20032;-73
2021/01/22 02:11:23;;;;;;;0.88;0.60;;;8.10;99.90;;;;;;4909677;29;20020;-76
2021/01/22 02:13:50;;;;;;;1.85;0.73;;;8.10;99.90;;;;;;4908865;29;20705;-74
2021/01/22 02:16:17;;;;;;;1.17;0.75;;;8.10;99.90;;;;;;4909365;29;20121;-74
2021/01/22 02:18:45;;;;;;;0.90;0.65;;;8.20;99.90;;;;;;4908830;29;20556;-74
2021/01/22 02:21:22;;;;;;;1.55;0.88;;;8.20;99.90;;;;;;4891631;29;20036;-75
2021/01/22 02:23:51;;;;;;;0.98;0.40;;;8.20;99.90;;;;;;4909125;29;20048;-78
2021/01/22 02:26:27;;;;;;;0.73;0.50;;;8.20;99.90;;;;;;4892187;29;20029;-74
2021/01/22 02:29:07;;;;;;;0.70;0.40;;;8.20;99.90;;;;;;4908944;29;20029;-75
2021/01/22 02:31:35;;;;;;;1.00;0.63;;;8.20;99.90;;;;;;4909011;29;20024;-79
2021/01/22 02:34:05;;;;;;;2.95;0.35;;;8.20;99.90;;;;;;4891948;29;20029;-74
2021/01/22 02:36:36;;;;;;;0.63;0.47;;;8.20;99.90;;;;;;4909014;29;20036;-81
2021/01/22 02:39:04;;;;;;;0.32;0.28;;;8.20;99.90;;;;;;4909001;29;20033;-76
2021/01/22 02:41:31;;;;;;;0.47;0.28;;;8.20;99.90;;;;;;4908483;29;20029;-75
2021/01/22 02:44:01;;;;;;;1.27;0.50;;;8.20;99.90;;;;;;4908960;29;20338;-72
2021/01/22 02:46:28;;;;;;;0.85;0.47;;;8.20;99.90;;;;;;4908927;29;20047;-76
2021/01/22 02:48:55;;;;;;;1.13;0.50;;;8.20;99.90;;;;;;4908814;29;20037;-76
2021/01/22 02:51:21;;;;;;;4.00;0.60;;;8.30;99.90;;;;;;4912457;29;20036;-77
2021/01/22 02:53:46;;;;;;;9.82;0.82;;;8.30;99.90;;;;;;4895596;29;20045;-76
2021/01/22 02:56:18;;;;;;;1.25;0.68;;;8.30;99.90;;;;;;4895103;29;20044;-75
2021/01/22 02:58:53;;;;;;;0.40;0.40;;;8.30;99.90;;;;;;4912746;29;20060;-76
2021/01/22 03:01:26;;;;;;;2.00;0.65;;;8.30;99.90;;;;;;4912037;29;20055;-76
2021/01/22 03:04:00;;;;;;;0.80;0.40;;;8.30;99.90;;;;;;4912824;29;20036;-78
2021/01/22 03:06:36;;;;;;;0.57;0.30;;;8.20;99.90;;;;;;4912594;29;20036;-74
2021/01/22 03:09:03;;;;;;;1.15;0.50;;;8.20;99.90;;;;;;4912334;29;20036;-73
2021/01/22 03:11:32;;;;;;;0.30;0.30;;;8.20;99.90;;;;;;4912261;29;20029;-73
2021/01/22 03:14:00;;;;;;;0.22;0.10;;;7.90;99.90;;;;;;4912403;29;20478;-74
2021/01/22 03:16:26;;;;;;;0.40;0.08;;;7.20;99.90;;;;;;4912251;29;20367;-74
2021/01/22 03:18:59;;;;;;;0.40;0.20;;;6.50;99.90;;;;;;4912440;29;20497;-76
2021/01/22 03:21:25;;;;;;;4.22;0.57;;;6.10;99.90;;;;;;4912052;29;20032;-73
2021/01/22 03:23:52;;;;;;;0.30;0.13;;;5.90;99.90;;;;;;4910705;29;20067;-74
2021/01/22 03:26:19;;;;;;;0.20;0.05;;;5.60;99.90;;;;;;4912094;29;20846;-75
2021/01/22 03:28:44;;;;;;;0.25;0.20;;;5.40;99.90;;;;;;4911766;29;20047;-74
2021/01/22 03:31:10;;;;;;;0.22;0.10;;;5.20;99.90;;;;;;4911180;29;20033;-72
2021/01/22 03:33:36;;;;;;;0.32;0.20;;;5.10;99.90;;;;;;4911826;29;20092;-74
2021/01/22 03:36:02;;;;;;;0.47;0.20;;;4.90;99.90;;;;;;4911745;29;20096;-74
2021/01/22 03:38:28;;;;;;;2.55;0.30;;;4.80;99.90;;;;;;4911699;29;20036;-74
2021/01/22 03:40:53;;;;;;;0.17;0.10;;;4.60;99.90;;;;;;4911789;29;20028;-74
2021/01/22 03:43:19;;;;;;;0.52;0.15;;;4.40;99.90;;;;;;4910367;29;20092;-74
2021/01/22 03:45:44;;;;;;;0.08;0.00;;;4.20;99.90;;;;;;4911355;29;20037;-76
2021/01/22 03:48:10;;;;;;;0.03;0.00;;;4.10;99.90;;;;;;4911531;29;20092;-77
2021/01/22 03:50:35;;;;;;;0.10;0.10;;;4.10;99.90;;;;;;4910186;29;20366;-74
2021/01/22 03:53:01;;;;;;;0.00;0.00;;;4.00;99.90;;;;;;4911348;29;20036;-75
2021/01/22 03:55:27;;;;;;;0.00;0.00;;;3.90;99.90;;;;;;4911676;29;20045;-76
2021/01/22 03:57:54;;;;;;;0.00;0.00;;;3.90;99.90;;;;;;4894588;29;20702;-78
2021/01/22 04:00:20;;;;;;;0.00;0.00;;;3.80;99.90;;;;;;4911331;29;20041;-75
2021/01/22 04:02:46;;;;;;;0.38;0.20;;;3.80;99.90;;;;;;4910158;29;20059;-78
2021/01/22 04:05:12;;;;;;;0.25;0.10;;;3.70;99.90;;;;;;4909721;29;20147;-77
2021/01/22 04:07:38;;;;;;;0.13;0.10;;;3.60;99.90;;;;;;4911312;29;20036;-73
2021/01/22 04:10:05;;;;;;;0.10;0.10;;;3.60;99.90;;;;;;4911422;29;20037;-75
2021/01/22 04:12:30;;;;;;;0.10;0.03;;;3.60;99.90;;;;;;4911073;29;20476;-73
2021/01/22 04:14:56;;;;;;;0.63;0.30;;;3.40;99.90;;;;;;4911083;29;20106;-76
2021/01/22 04:17:23;;;;;;;0.10;0.10;;;3.40;99.90;;;;;;4911385;29;20029;-73
2021/01/22 04:19:49;;;;;;;0.47;0.38;;;3.40;99.90;;;;;;4910683;29;20453;-74
2021/01/22 04:22:14;;;;;;;0.25;0.25;;;3.40;99.90;;;;;;4911150;29;20039;-76
2021/01/22 04:24:40;;;;;;;1.02;0.70;;;3.40;99.90;;;;;;4910989;29;20032;-74
2021/01/22 04:27:05;;;;;;;0.65;0.38;;;3.40;99.90;;;;;;4909158;29;20542;-74
2021/01/22 04:29:31;;;;;;;0.82;0.60;;;3.40;99.90;;;;;;4911044;29;20112;-74
2021/01/22 04:31:57;;;;;;;0.93;0.47;;;3.30;99.90;;;;;;4910948;29;20029;-73
2021/01/22 04:34:23;;;;;;;1.02;0.57;;;3.30;99.90;;;;;;4910633;29;20032;-75
2021/01/22 04:36:49;;;;;;;0.73;0.57;;;3.40;99.90;;;;;;4910848;29;20079;-73
2021/01/22 04:39:14;;;;;;;1.40;0.70;;;3.30;99.90;;;;;;4910722;29;20478;-72
2021/01/22 04:41:40;;;;;;;0.63;0.55;;;3.40;99.90;;;;;;4910238;29;20119;-72
2021/01/22 04:44:06;;;;;;;1.08;0.63;;;3.40;99.90;;;;;;4893589;29;20036;-75
2021/01/22 04:46:36;;;;;;;2.83;0.80;;;3.40;99.90;;;;;;4910247;29;20054;-74
2021/01/22 04:49:04;;;;;;;1.13;0.80;;;3.40;99.90;;;;;;4910439;29;20041;-73
2021/01/22 04:51:30;;;;;;;0.45;0.43;;;3.40;99.90;;;;;;4893528;29;20127;-74
2021/01/22 04:54:03;;;;;;;1.10;0.88;;;3.40;99.90;;;;;;4910290;29;20024;-74
2021/01/22 04:56:31;;;;;;;0.68;0.63;;;3.40;99.90;;;;;;4910390;29;20045;-73
2021/01/22 04:59:00;;;;;;;1.63;1.10;;;3.40;99.90;;;;;;4910154;29;20032;-75
2021/01/22 05:01:26;;;;;;;1.40;0.63;;;3.50;99.90;;;;;;4909444;29;20468;-76
2021/01/22 05:03:53;;;;;;;1.42;0.95;;;3.50;99.90;;;;;;4893511;29;20028;-74
2021/01/22 05:06:18;;;;;;;1.08;0.85;;;3.50;99.90;;;;;;4910226;29;20025;-72
2021/01/22 05:08:44;;;;;;;2.13;1.05;;;3.50;99.90;;;;;;4909851;29;20068;-73
2021/01/22 05:11:09;;;;;;;1.40;0.95;;;3.50;99.90;;;;;;4910006;29;20032;-73
2021/01/22 05:13:36;;;;;;;1.65;1.15;;;3.50;99.90;;;;;;4909695;29;20024;-73
2021/01/22 05:16:13;;;;;;;0.50;0.50;;;3.50;99.90;;;;;;4909825;29;20063;-73
2021/01/22 05:18:40;;;;;;;0.77;0.75;;;3.40;99.90;;;;;;4909835;29;20091;-74
2021/01/22 05:21:10;;;;;;;0.77;0.60;;;3.40;99.90;;;;;;4910152;29;20096;-73
2021/01/22 05:23:38;;;;;;;1.65;0.70;;;3.50;99.90;;;;;;4910070;29;20033;-76
2021/01/22 05:26:22;;;;;;;1.50;0.77;;;3.50;99.90;;;;;;4909871;29;20021;-74
2021/01/22 05:28:48;;;;;;;1.27;0.52;;;3.50;99.90;;;;;;4909559;29;20032;-72
2021/01/22 05:31:18;;;;;;;2.50;0.52;;;3.50;99.90;;;;;;4892770;29;20037;-72
2021/01/22 05:33:56;;;;;;;0.70;0.50;;;3.50;99.90;;;;;;4909780;29;20043;-72
2021/01/22 05:36:23;;;;;;;6.35;1.27;;;3.40;99.90;;;;;;4909512;29;20048;-73
2021/01/22 05:38:53;;;;;;;1.73;0.63;;;3.50;99.90;;;;;;4909792;29;20485;-72
2021/01/22 05:41:18;;;;;;;1.60;1.02;;;3.50;99.90;;;;;;4909673;29;20501;-72
2021/01/22 05:43:44;;;;;;;1.38;0.70;;;3.50;99.90;;;;;;4909457;29;20056;-73
2021/01/22 05:46:21;;;;;;;1.40;0.98;;;3.40;99.90;;;;;;4908294;29;20024;-73
2021/01/22 05:48:47;;;;;;;1.08;0.82;;;3.40;99.90;;;;;;4909268;29;20404;-75
2021/01/22 05:51:14;;;;;;;1.67;0.80;;;3.40;99.90;;;;;;4891858;29;20032;-73
2021/01/22 05:53:45;;;;;;;1.35;0.85;;;3.40;99.90;;;;;;4892204;29;20029;-74
2021/01/22 05:56:16;;;;;;;4.47;0.80;;;3.30;99.90;;;;;;4892067;29;20041;-72
2021/01/22 05:58:47;;;;;;;1.88;1.23;;;3.30;99.90;;;;;;4909208;29;20020;-72
2021/01/22 06:01:18;;;;;;;1.00;0.68;;;3.30;99.90;;;;;;4909044;29;20049;-70
2021/01/22 06:04:06;;;;;;;1.30;0.63;;;3.30;99.90;;;;;;4909034;29;20032;-74
2021/01/22 06:06:32;;;;;;;1.30;0.63;;;3.30;99.90;;;;;;4909272;29;20115;-73
2021/01/22 06:08:58;;;;;;;1.45;0.70;;;3.20;99.90;;;;;;4907914;29;20502;-73
2021/01/22 06:11:28;;;;;;;2.35;0.82;;;3.20;99.90;;;;;;4907911;29;20031;-73
2021/01/22 06:13:58;;;;;;;5.20;1.05;;;3.20;99.90;;;;;;4909560;29;20024;-72
2021/01/22 06:16:26;;;;;;;3.45;0.80;;;3.20;99.90;;;;;;4909284;29;20131;-73
2021/01/22 06:19:01;;;;;;;2.67;1.15;;;3.20;99.90;;;;;;4908841;29;20402;-73
2021/01/22 06:21:39;;;;;;;2.38;0.85;;;3.20;99.90;;;;;;4908835;29;20044;-73
2021/01/22 06:24:06;;;;;;;2.53;1.40;;;3.20;99.90;;;;;;4908268;29;20036;-71
2021/01/22 06:26:36;;;;;;;1.50;0.90;;;3.20;99.90;;;;;;4908504;29;20028;-74
2021/01/22 06:29:04;;;;;;;1.08;0.95;;;3.30;99.90;;;;;;4907167;29;20115;-73
2021/01/22 06:31:30;;;;;;;3.63;1.42;;;3.30;99.90;;;;;;4908943;29;20031;-73
2021/01/22 06:33:57;;;;;;;4.15;1.52;;;3.40;99.90;;;;;;4908417;29;20036;-74
2021/01/22 06:36:23;;;;;;;4.53;2.05;;;3.40;99.90;;;;;;4907244;29;20037;-74
2021/01/22 06:38:50;;;;;;;2.45;1.70;;;3.40;99.90;;;;;;4907932;29;20037;-75
2021/01/22 06:41:16;;;;;;;2.30;1.83;;;3.50;99.90;;;;;;4908851;29;20764;-73
2021/01/22 06:43:42;;;;;;;2.30;1.67;;;3.60;99.90;;;;;;4907809;29;20043;-73
2021/01/22 06:46:14;;;;;;;5.03;2.72;;;3.50;99.90;;;;;;4907722;29;20033;-72
2021/01/22 06:48:51;;;;;;;4.32;2.05;;;3.60;99.90;;;;;;4908752;29;20039;-73
2021/01/22 06:51:17;;;;;;;6.43;3.08;;;3.60;99.90;;;;;;4890097;29;20033;-73
2021/01/22 06:54:13;;;;;;;3.63;2.65;;;3.60;99.90;;;;;;4895416;29;20025;-73
2021/01/22 06:56:59;;;;;;;12.93;2.40;;;3.70;99.90;;;;;;4908174;29;20037;-72
2021/01/22 06:59:30;;;;;;;3.15;1.90;;;3.70;99.90;;;;;;4875111;29;20047;-74
2021/01/22 08:07:41;;;;;;;8.77;4.03;;;4.30;99.90;;;;;;4726529;27;20052;-73
2021/01/22 08:10:09;;;;;;;5.57;3.55;;;4.30;99.90;;;;;;4907054;29;20040;-74
2021/01/22 08:12:36;;;;;;;8.80;3.58;;;4.30;99.90;;;;;;4909965;29;20036;-73
2021/01/22 08:15:18;;;;;;;7.10;4.00;;;4.30;99.90;;;;;;4907619;29;20056;-77
2021/01/22 08:17:45;;;;;;;14.52;3.95;;;4.30;99.90;;;;;;4924955;29;20033;-78
2021/01/22 08:20:12;;;;;;;11.27;4.95;;;4.30;99.90;;;;;;4911122;29;20040;-73
2021/01/22 08:22:37;;;;;;;12.82;4.15;;;4.30;99.90;;;;;;4925695;29;20039;-75
2021/01/22 08:25:03;;;;;;;11.70;3.80;;;4.40;99.90;;;;;;4910711;29;20033;-72
2021/01/22 08:27:29;;;;;;;5.72;3.58;;;4.40;99.90;;;;;;4910928;29;20029;-75
2021/01/22 08:29:55;;;;;;;8.93;4.80;;;4.40;99.90;;;;;;4910718;29;20084;-73
2021/01/22 08:32:22;;;;;;;9.80;4.60;;;4.40;99.90;;;;;;4924955;29;20413;-77
2021/01/22 08:34:47;;;;;;;6.32;3.47;;;4.40;99.90;;;;;;4910720;29;20084;-74
2021/01/22 08:37:15;;;;;;;9.18;4.90;;;4.40;99.90;;;;;;4910691;29;20551;-76
2021/01/22 08:39:58;;;;;;;7.15;3.60;;;4.40;99.90;;;;;;4910043;29;20053;-74
2021/01/22 08:42:24;;;;;;;6.88;3.22;;;4.40;99.90;;;;;;4910599;29;20032;-71
2021/01/22 08:45:02;;;;;;;9.52;4.72;;;4.40;99.90;;;;;;4910565;29;20092;-73
2021/01/22 08:47:31;;;;;;;11.23;4.50;;;4.40;99.90;;;;;;4908266;29;20374;-76
2021/01/22 08:49:58;;;;;;;10.85;4.35;;;4.50;99.90;;;;;;4909222;29;20060;-75
2021/01/22 08:52:24;;;;;;;8.40;4.43;;;4.50;99.90;;;;;;4909218;29;20040;-75
2021/01/22 08:54:53;;;;;;;6.97;3.90;;;4.50;99.90;;;;;;4911170;29;20430;-76
2021/01/22 08:57:19;;;;;;;7.13;3.08;;;4.50;99.90;;;;;;4911004;29;20056;-76
2021/01/22 08:59:53;;;;;;;14.60;3.35;;;4.50;99.90;;;;;;4908947;29;20032;-74
2021/01/22 09:02:42;;;;;;;9.93;4.43;;;4.50;99.90;;;;;;4910165;29;20024;-75
2021/01/22 09:05:13;;;;;;;7.10;4.28;;;4.50;99.90;;;;;;4905529;29;20033;-76
2021/01/22 09:07:40;;;;;;;12.30;4.63;;;4.60;99.90;;;;;;4890570;29;20109;-72
2021/01/22 09:10:27;;;;;;;7.88;3.67;;;4.70;99.90;;;;;;4889873;29;20032;-75
2021/01/22 09:12:53;;;;;;;6.20;3.17;;;4.70;99.90;;;;;;4890954;29;20049;-75
2021/01/22 09:15:19;;;;;;;8.65;3.53;;;4.90;99.90;;;;;;4905222;29;20057;-73
2021/01/22 09:17:45;;;;;;;8.82;3.38;;;5.10;99.90;;;;;;4889940;29;20041;-76
2021/01/22 09:20:19;;;;;;;5.63;2.72;;;5.20;99.90;;;;;;4890904;29;20033;-77
2021/01/22 09:22:47;;;;;;;6.75;4.03;;;5.40;99.90;;;;;;4890969;29;20033;-75
2021/01/22 09:25:15;;;;;;;6.75;3.95;;;5.50;99.90;;;;;;4891103;29;20037;-75
2021/01/22 09:27:42;;;;;;;10.77;4.28;;;5.60;99.90;;;;;;4889413;29;20032;-75
2021/01/22 09:30:17;;;;;;;12.95;4.55;;;5.60;99.90;;;;;;4905163;29;20044;-76
2021/01/22 09:32:50;;;;;;;5.50;3.42;;;5.50;99.90;;;;;;4905368;29;20037;-75
2021/01/22 09:35:19;;;;;;;8.00;4.68;;;5.50;99.90;;;;;;4890616;29;20032;-76
2021/01/22 09:37:44;;;;;;;6.65;3.80;;;5.40;99.90;;;;;;4890434;29;20037;-76
2021/01/22 09:40:10;;;;;;;13.02;4.32;;;5.30;99.90;;;;;;4890596;29;20033;-75
2021/01/22 09:42:37;;;;;;;6.82;3.30;;;5.30;99.90;;;;;;4890594;29;20036;-76
2021/01/22 09:45:04;;;;;;;9.32;3.97;;;5.40;99.90;;;;;;4889606;29;20056;-75
2021/01/22 09:47:30;;;;;;;5.93;3.75;;;5.30;99.90;;;;;;4890805;29;20025;-74
2021/01/22 09:49:56;;;;;;;7.47;3.78;;;5.20;99.90;;;;;;4890202;29;20036;-73
2021/01/22 09:52:21;;;;;;;6.40;3.33;;;5.20;99.90;;;;;;4890753;29;20037;-75
2021/01/22 09:54:47;;;;;;;6.18;3.53;;;5.20;99.90;;;;;;4890404;29;20522;-76
2021/01/22 09:57:13;;;;;;;8.82;3.38;;;5.20;99.90;;;;;;4890499;29;20037;-75
2021/01/22 09:59:39;;;;;;;10.13;3.13;;;5.20;99.90;;;;;;4890401;29;20037;-74
2021/01/22 10:02:05;;;;;;;10.98;3.50;;;5.30;99.90;;;;;;4888894;29;20039;-75
2021/01/22 10:04:34;;;;;;;9.23;3.50;;;5.30;99.90;;;;;;4890371;29;20096;-75
2021/01/22 10:07:00;;;;;;;4.93;3.38;;;5.40;99.90;;;;;;4901392;29;20099;-74
2021/01/22 10:09:26;;;;;;;6.25;3.03;;;5.50;99.90;;;;;;4887869;29;20029;-72
2021/01/22 10:11:52;;;;;;;12.73;4.32;;;5.70;99.90;;;;;;4888323;29;20458;-70
2021/01/22 10:14:18;;;;;;;7.60;3.95;;;5.80;99.90;;;;;;4889435;29;20198;-73
2021/01/22 10:16:43;;;;;;;8.48;4.00;;;6.00;99.90;;;;;;4889142;29;20048;-73
2021/01/22 10:19:09;;;;;;;8.20;3.15;;;6.20;99.90;;;;;;4889571;29;20033;-73
2021/01/22 10:21:35;;;;;;;5.38;2.80;;;6.40;99.90;;;;;;4889587;29;20085;-74
2021/01/22 10:24:02;;;;;;;6.43;3.10;;;6.60;99.90;;;;;;4889089;29;20478;-74
2021/01/22 10:26:28;;;;;;;4.90;2.25;;;6.80;99.90;;;;;;4889609;29;20037;-74
2021/01/22 10:28:54;;;;;;;6.70;3.45;;;6.90;99.90;;;;;;4889121;29;20022;-72
2021/01/22 10:31:20;;;;;;;5.60;3.13;;;7.00;99.90;;;;;;4889334;29;20077;-73
2021/01/22 10:33:46;;;;;;;15.35;3.42;;;7.00;99.90;;;;;;4889320;29;20058;-73
2021/01/22 10:36:13;;;;;;;5.20;2.40;;;6.80;99.90;;;;;;4889016;29;20041;-73
2021/01/22 10:38:39;;;;;;;3.47;2.17;;;6.70;99.90;;;;;;4889252;29;20030;-78
2021/01/22 10:41:05;;;;;;;5.95;2.88;;;6.50;99.90;;;;;;4888017;29;20389;-73
2021/01/22 10:43:32;;;;;;;4.93;2.83;;;6.40;99.90;;;;;;4889139;29;20037;-73
2021/01/22 10:45:59;;;;;;;5.80;3.15;;;6.30;99.90;;;;;;4887881;29;20067;-74
2021/01/22 10:48:26;;;;;;;8.90;2.33;;;6.20;99.90;;;;;;4889623;29;20033;-72
2021/01/22 10:50:52;;;;;;;5.55;2.83;;;6.10;99.90;;;;;;4891925;29;20037;-72
2021/01/22 10:53:18;;;;;;;6.75;3.40;;;6.10;99.90;;;;;;4889124;29;20032;-72
2021/01/22 10:55:45;;;;;;;5.97;3.15;;;5.90;99.90;;;;;;4889029;29;20040;-74
2021/01/22 10:58:10;;;;;;;9.90;2.88;;;5.80;99.90;;;;;;4887437;29;20033;-74
2021/01/22 11:00:36;;;;;;;8.95;2.97;;;5.90;99.90;;;;;;4889354;29;20033;-74
2021/01/22 11:03:03;;;;;;;6.03;3.03;;;5.80;99.90;;;;;;4903180;29;20033;-74
2021/01/22 11:05:29;;;;;;;8.30;3.28;;;5.80;99.90;;;;;;4888798;29;20077;-76
2021/01/22 11:07:55;;;;;;;4.05;2.60;;;5.80;99.90;;;;;;4902889;29;20033;-73
2021/01/22 11:10:20;;;;;;;7.20;3.60;;;5.70;99.90;;;;;;4889172;29;20043;-72
2021/01/22 11:12:47;;;;;;;25.13;4.25;;;5.80;99.90;;;;;;4892303;29;20033;-72
2021/01/22 11:15:13;;;;;;;6.32;2.78;;;5.90;99.90;;;;;;4891102;29;20029;-74
2021/01/22 11:17:39;;;;;;;15.98;3.65;;;6.30;99.90;;;;;;4892811;29;20119;-75
2021/01/22 11:20:07;;;;;;;6.75;3.08;;;6.50;99.90;;;;;;4890937;29;20040;-75
2021/01/22 11:22:34;;;;;;;6.72;3.72;;;6.60;99.90;;;;;;4892140;29;20033;-75
2021/01/22 11:25:01;;;;;;;11.30;4.03;;;7.00;99.90;;;;;;4907093;29;20041;-74
2021/01/22 11:27:27;;;;;;;3.85;2.47;;;7.20;99.90;;;;;;4892659;29;20040;-73
2021/01/22 11:29:53;;;;;;;10.45;4.18;;;7.40;99.90;;;;;;4892476;29;20069;-73
2021/01/22 11:32:19;;;;;;;12.93;3.00;;;7.70;99.90;;;;;;4891890;29;20022;-75
2021/01/22 11:34:44;;;;;;;9.93;3.90;;;8.00;99.90;;;;;;4892219;29;20029;-74
2021/01/22 11:37:10;;;;;;;6.07;3.50;;;7.90;99.90;;;;;;4906306;29;20045;-73
2021/01/22 11:39:37;;;;;;;4.65;2.70;;;7.90;99.90;;;;;;4892453;29;20025;-72
2021/01/22 11:42:08;;;;;;;5.25;3.25;;;8.00;99.90;;;;;;4892222;29;20088;-75
2021/01/22 11:44:35;;;;;;;14.05;2.97;;;8.20;99.90;;;;;;4892539;29;20067;-76
2021/01/22 11:47:02;;;;;;;5.60;2.92;;;8.60;99.90;;;;;;4890914;29;20053;-77
2021/01/22 11:49:28;;;;;;;19.08;3.65;;;8.70;99.90;;;;;;4892359;29;20033;-75
2021/01/22 11:51:53;;;;;;;6.68;3.30;;;8.40;99.90;;;;;;4892396;29;20138;-75
2021/01/22 11:54:19;;;;;;;7.43;2.97;;;8.20;99.90;;;;;;4892406;29;20040;-73
2021/01/22 11:56:46;;;;;;;6.82;3.03;;;8.20;99.90;;;;;;4906459;29;20045;-74
2021/01/22 11:59:12;;;;;;;10.38;2.55;;;8.30;99.90;;;;;;4906564;29;20029;-72
2021/01/22 12:01:38;;;;;;;9.60;3.13;;;8.40;99.90;;;;;;4891221;29;20029;-75
2021/01/22 12:04:04;;;;;;;7.78;3.00;;;8.20;99.90;;;;;;4892658;29;20108;-76
2021/01/22 12:06:32;;;;;;;7.93;3.53;;;8.40;99.90;;;;;;4891923;29;20096;-75
2021/01/22 12:08:57;;;;;;;6.97;3.58;;;8.20;99.90;;;;;;4892181;29;20124;-74
2021/01/22 12:11:23;;;;;;;6.03;2.60;;;7.90;99.90;;;;;;4906209;29;20037;-75
2021/01/22 12:13:48;;;;;;;7.30;3.20;;;7.70;99.90;;;;;;4891113;29;20064;-74
2021/01/22 12:16:14;;;;;;;7.88;3.13;;;7.40;99.90;;;;;;4891818;29;20073;-74
2021/01/22 12:18:40;;;;;;;4.50;2.35;;;7.30;99.90;;;;;;4891450;29;20470;-77
2021/01/22 12:21:10;;;;;;;5.85;3.05;;;7.20;99.90;;;;;;4891555;29;20029;-75
2021/01/22 12:23:36;;;;;;;9.95;3.78;;;7.10;99.90;;;;;;4890852;29;20029;-77
2021/01/22 12:26:04;;;;;;;8.48;3.03;;;7.00;99.90;;;;;;4905768;29;20029;-77
2021/01/22 12:28:29;;;;;;;4.90;2.72;;;7.10;99.90;;;;;;4890277;29;20399;-74
2021/01/22 12:30:55;;;;;;;9.98;3.38;;;7.30;99.90;;;;;;4891433;29;20407;-74
2021/01/22 12:33:21;;;;;;;6.20;2.97;;;7.90;99.90;;;;;;4891740;29;20493;-74
2021/01/22 12:35:50;;;;;;;4.53;3.05;;;8.40;99.90;;;;;;4890986;29;20033;-74
2021/01/22 12:38:19;;;;;;;10.27;2.33;;;8.40;99.90;;;;;;4888406;29;20033;-73
2021/01/22 12:40:45;;;;;;;5.70;2.60;;;8.30;99.90;;;;;;4890452;29;20088;-73
2021/01/22 12:43:10;;;;;;;6.85;2.75;;;8.00;99.90;;;;;;4889011;29;20029;-76
2021/01/22 12:45:37;;;;;;;6.30;2.55;;;8.40;99.90;;;;;;4891482;29;20052;-73
2021/01/22 12:48:04;;;;;;;5.07;2.10;;;8.90;99.90;;;;;;4891036;29;20037;-75
2021/01/22 12:50:30;;;;;;;3.72;2.15;;;9.00;99.90;;;;;;4905090;29;20029;-74
2021/01/22 12:52:57;;;;;;;10.02;3.20;;;8.90;99.90;;;;;;4890766;29;20021;-74
2021/01/22 12:55:22;;;;;;;5.75;2.67;;;8.70;99.90;;;;;;4890370;29;20040;-76
2021/01/22 12:57:48;;;;;;;6.97;2.63;;;8.80;99.90;;;;;;4888940;29;20033;-74
2021/01/22 13:00:14;;;;;;;15.48;3.13;;;8.90;99.90;;;;;;4890679;29;20040;-75
2021/01/22 13:02:39;;;;;;;3.70;2.35;;;9.00;99.90;;;;;;4891336;29;20049;-75
2021/01/22 13:05:06;;;;;;;3.25;1.75;;;8.90;99.90;;;;;;4889576;29;20021;-76
2021/01/22 13:07:32;;;;;;;3.63;1.98;;;8.70;99.90;;;;;;4890845;29;20128;-77
2021/01/22 13:09:58;;;;;;;13.73;2.95;;;8.40;99.90;;;;;;4888009;29;20472;-74
2021/01/22 13:12:23;;;;;;;2.88;2.03;;;8.30;99.90;;;;;;4890959;29;20044;-77
2021/01/22 13:14:50;;;;;;;6.25;2.20;;;8.60;99.90;;;;;;4890678;29;20058;-77
2021/01/22 13:17:16;;;;;;;3.30;1.50;;;9.00;99.90;;;;;;4890567;29;20033;-74
2021/01/22 13:19:41;;;;;;;9.35;2.40;;;9.40;99.90;;;;;;4889672;29;20029;-76
2021/01/22 13:22:07;;;;;;;8.80;2.25;;;9.80;99.90;;;;;;4889661;29;20036;-77
2021/01/22 13:24:33;;;;;;;5.93;2.65;;;9.60;99.90;;;;;;4889164;29;20447;-74
2021/01/22 13:26:58;;;;;;;4.53;2.42;;;9.30;99.90;;;;;;4890818;29;20052;-75
2021/01/22 13:29:24;;;;;;;6.88;1.95;;;9.20;99.90;;;;;;4891057;29;20036;-74
2021/01/22 13:31:49;;;;;;;5.88;2.55;;;9.30;99.90;;;;;;4890665;29;20056;-73
2021/01/22 13:34:15;;;;;;;3.05;1.65;;;9.10;99.90;;;;;;4890527;29;20025;-73
2021/01/22 13:36:41;;;;;;;3.55;1.75;;;9.20;99.90;;;;;;4890554;29;20108;-74
2021/01/22 13:39:07;;;;;;;2.85;1.40;;;8.90;99.90;;;;;;4890697;29;20089;-73
2021/01/22 13:41:33;;;;;;;8.07;2.03;;;8.60;99.90;;;;;;4890646;29;20025;-73
2021/01/22 13:44:01;;;;;;;9.18;1.98;;;8.50;99.90;;;;;;4890326;29;20489;-75
2021/01/22 13:46:27;;;;;;;5.35;1.48;;;8.30;99.90;;;;;;4890388;29;20068;-75
2021/01/22 13:48:53;;;;;;;2.00;1.20;;;8.10;99.90;;;;;;4890760;29;20044;-75
2021/01/22 13:51:19;;;;;;;6.68;3.40;;;8.10;99.90;;;;;;4888636;29;20029;-74
2021/01/22 13:53:44;;;;;;;9.10;2.58;;;8.20;99.90;;;;;;4889713;29;20029;-75
2021/01/22 13:56:10;;;;;;;7.90;2.67;;;8.10;99.90;;;;;;4904585;29;20037;-75
2021/01/22 13:58:36;;;;;;;2.97;1.92;;;8.00;99.90;;;;;;4904238;29;20123;-75
2021/01/22 14:01:03;;;;;;;3.88;2.08;;;8.10;99.90;;;;;;4889520;29;20057;-74